sensor_id;sensor_type;location;lat;lon;timestamp;pressure;altitude;pressure_sealevel;temperature;humidity
250;BME280;109;19.806;-70.704;2023-02-21T00:00:30;101686.09;;;23.10;63.94
250;BME280;109;19.806;-70.704;2023-02-21T00:03:15;101701.34;;;23.06;64.04
250;BME280;109;19.806;-70.704;2023-02-21T00:06:00;101714.78;;;22.74;65.07
250;BME280;109;19.806;-70.704;2023-02-21T00:08:45;101706.88;;;22.71;65.44
250;BME280;109;19.806;-70.704;2023-02-21T00:11:30;101715.66;;;22.74;65.60
250;BME280;109;19.806;-70.704;2023-02-21T00:14:15;101722.47;;;22.84;65.62
250;BME280;109;19.806;-70.704;2023-02-21T00:17:00;101729.19;;;22.68;65.73
250;BME280;109;19.806;-70.704;2023-02-21T00:19:45;101730.13;;;22.65;65.79
250;BME280;109;19.806;-70.704;2023-02-21T00:22:29;101724.56;;;22.75;65.57
250;BME280;109;19.806;-70.704;2023-02-21T00:25:14;101725.47;;;22.74;65.33
250;BME280;109;19.806;-70.704;2023-02-21T00:28:00;101743.81;;;22.55;65.28
250;BME280;109;19.806;-70.704;2023-02-21T00:30:45;101752.91;;;22.48;65.81
250;BME280;109;19.806;-70.704;2023-02-21T00:33:30;101746.66;;;22.49;66.16
250;BME280;109;19.806;-70.704;2023-02-21T00:36:16;101747.56;;;22.48;66.17
250;BME280;109;19.806;-70.704;2023-02-21T00:39:01;101751.13;;;22.48;66.03
250;BME280;109;19.806;-70.704;2023-02-21T00:41:46;101758.78;;;22.60;65.91
250;BME280;109;19.806;-70.704;2023-02-21T00:44:31;101751.69;;;22.59;66.01
250;BME280;109;19.806;-70.704;2023-02-21T00:47:18;101761.13;;;22.71;65.65
250;BME280;109;19.806;-70.704;2023-02-21T00:50:03;101771.03;;;22.66;65.56
250;BME280;109;19.806;-70.704;2023-02-21T00:52:48;101774.66;;;22.63;65.81
250;BME280;109;19.806;-70.704;2023-02-21T00:55:33;101777.22;;;22.68;65.53
250;BME280;109;19.806;-70.704;2023-02-21T00:58:20;101775.75;;;22.58;65.87
250;BME280;109;19.806;-70.704;2023-02-21T01:01:06;101778.16;;;22.65;65.71
250;BME280;109;19.806;-70.704;2023-02-21T01:03:50;101782.50;;;22.70;65.70
250;BME280;109;19.806;-70.704;2023-02-21T01:06:41;101771.88;;;22.68;66.03
250;BME280;109;19.806;-70.704;2023-02-21T01:09:34;101781.00;;;22.61;65.63
250;BME280;109;19.806;-70.704;2023-02-21T01:12:25;101783.66;;;22.61;65.81
250;BME280;109;19.806;-70.704;2023-02-21T01:15:17;101786.22;;;22.64;65.55
250;BME280;109;19.806;-70.704;2023-02-21T01:18:08;101784.56;;;22.60;65.69
250;BME280;109;19.806;-70.704;2023-02-21T01:21:02;101786.44;;;22.56;65.35
250;BME280;109;19.806;-70.704;2023-02-21T01:23:53;101788.16;;;22.59;64.95
250;BME280;109;19.806;-70.704;2023-02-21T01:26:44;101798.03;;;22.55;64.97
250;BME280;109;19.806;-70.704;2023-02-21T01:29:35;101799.88;;;22.53;64.79
250;BME280;109;19.806;-70.704;2023-02-21T01:32:26;101797.13;;;22.56;64.91
250;BME280;109;19.806;-70.704;2023-02-21T01:35:26;101799.00;;;22.53;64.68
250;BME280;109;19.806;-70.704;2023-02-21T01:38:27;101806.88;;;22.57;65.08
250;BME280;109;19.806;-70.704;2023-02-21T01:41:25;101803.41;;;22.54;64.94
250;BME280;109;19.806;-70.704;2023-02-21T01:44:37;101805.06;;;22.59;64.86
250;BME280;109;19.806;-70.704;2023-02-21T01:47:35;101805.28;;;22.50;65.11
250;BME280;109;19.806;-70.704;2023-02-21T01:50:29;101809.88;;;22.45;65.06
250;BME280;109;19.806;-70.704;2023-02-21T01:53:30;101809.97;;;22.42;65.17
250;BME280;109;19.806;-70.704;2023-02-21T01:56:28;101802.69;;;22.49;65.11
250;BME280;109;19.806;-70.704;2023-02-21T01:59:22;101816.47;;;22.30;65.11
250;BME280;109;19.806;-70.704;2023-02-21T02:02:39;101805.63;;;22.38;65.14
250;BME280;109;19.806;-70.704;2023-02-21T02:05:34;101811.94;;;22.34;65.17
250;BME280;109;19.806;-70.704;2023-02-21T02:08:35;101809.59;;;22.22;65.18
250;BME280;109;19.806;-70.704;2023-02-21T02:18:22;101798.66;;;22.33;65.44
250;BME280;109;19.806;-70.704;2023-02-21T02:21:37;101795.03;;;22.35;65.23
250;BME280;109;19.806;-70.704;2023-02-21T02:35:30;101778.59;;;22.18;65.46
250;BME280;109;19.806;-70.704;2023-02-21T02:38:22;101782.94;;;22.22;65.33
250;BME280;109;19.806;-70.704;2023-02-21T02:43:49;101787.34;;;22.23;65.37
250;BME280;109;19.806;-70.704;2023-02-21T02:46:34;101782.09;;;22.20;65.67
250;BME280;109;19.806;-70.704;2023-02-21T02:49:29;101778.66;;;22.15;65.08
250;BME280;109;19.806;-70.704;2023-02-21T02:52:10;101787.47;;;22.18;65.47
250;BME280;109;19.806;-70.704;2023-02-21T02:54:36;101783.00;;;22.19;65.43
250;BME280;109;19.806;-70.704;2023-02-21T02:57:17;101779.44;;;22.20;65.00
250;BME280;109;19.806;-70.704;2023-02-21T02:59:45;101778.44;;;22.24;64.96
250;BME280;109;19.806;-70.704;2023-02-21T03:02:48;101775.78;;;22.24;64.93
250;BME280;109;19.806;-70.704;2023-02-21T03:05:42;101775.78;;;22.24;65.04
250;BME280;109;19.806;-70.704;2023-02-21T03:08:49;101772.28;;;22.22;65.01
250;BME280;109;19.806;-70.704;2023-02-21T03:11:30;101768.63;;;22.24;64.88
250;BME280;109;19.806;-70.704;2023-02-21T03:16:56;101777.47;;;22.26;64.76
250;BME280;109;19.806;-70.704;2023-02-21T03:19:43;101775.53;;;22.33;64.54
250;BME280;109;19.806;-70.704;2023-02-21T03:22:27;101786.16;;;22.35;64.33
250;BME280;109;19.806;-70.704;2023-02-21T03:24:58;101784.22;;;22.41;64.58
250;BME280;109;19.806;-70.704;2023-02-21T03:27:42;101786.34;;;22.27;64.95
250;BME280;109;19.806;-70.704;2023-02-21T03:30:32;101787.06;;;22.34;64.49
250;BME280;109;19.806;-70.704;2023-02-21T03:33:12;101788.00;;;22.31;64.78
250;BME280;109;19.806;-70.704;2023-02-21T03:35:59;101781.97;;;22.24;64.81
250;BME280;109;19.806;-70.704;2023-02-21T03:38:42;101782.72;;;22.29;64.44
250;BME280;109;19.806;-70.704;2023-02-21T03:41:23;101782.59;;;22.34;64.34
250;BME280;109;19.806;-70.704;2023-02-21T03:43:50;101781.66;;;22.37;64.38
250;BME280;109;19.806;-70.704;2023-02-21T03:46:29;101777.19;;;22.37;64.31
250;BME280;109;19.806;-70.704;2023-02-21T03:48:56;101771.78;;;22.40;63.94
250;BME280;109;19.806;-70.704;2023-02-21T03:51:36;101770.09;;;22.36;63.77
250;BME280;109;19.806;-70.704;2023-02-21T03:54:02;101771.91;;;22.36;64.16
250;BME280;109;19.806;-70.704;2023-02-21T03:56:47;101763.19;;;22.29;64.35
250;BME280;109;19.806;-70.704;2023-02-21T03:59:23;101765.97;;;22.24;64.12
250;BME280;109;19.806;-70.704;2023-02-21T04:02:03;101765.19;;;22.21;64.03
250;BME280;109;19.806;-70.704;2023-02-21T04:04:32;101759.78;;;22.24;64.00
250;BME280;109;19.806;-70.704;2023-02-21T04:07:18;101754.16;;;22.35;63.80
250;BME280;109;19.806;-70.704;2023-02-21T04:09:52;101759.44;;;22.36;64.04
250;BME280;109;19.806;-70.704;2023-02-21T04:12:41;101758.59;;;22.34;64.12
250;BME280;109;19.806;-70.704;2023-02-21T04:15:14;101751.56;;;22.32;64.15
250;BME280;109;19.806;-70.704;2023-02-21T04:17:54;101750.91;;;22.23;64.38
250;BME280;109;19.806;-70.704;2023-02-21T04:20:28;101749.03;;;22.25;64.29
250;BME280;109;19.806;-70.704;2023-02-21T04:23:18;101743.84;;;22.21;63.81
250;BME280;109;19.806;-70.704;2023-02-21T04:25:58;101749.91;;;22.26;64.05
250;BME280;109;19.806;-70.704;2023-02-21T04:28:40;101738.59;;;22.18;64.17
250;BME280;109;19.806;-70.704;2023-02-21T04:31:21;101740.22;;;22.23;64.12
250;BME280;109;19.806;-70.704;2023-02-21T04:33:50;101737.56;;;22.23;64.01
250;BME280;109;19.806;-70.704;2023-02-21T04:36:36;101734.19;;;22.17;63.93
250;BME280;109;19.806;-70.704;2023-02-21T04:39:15;101729.97;;;22.08;64.09
250;BME280;109;19.806;-70.704;2023-02-21T04:41:55;101732.50;;;22.13;63.81
250;BME280;109;19.806;-70.704;2023-02-21T04:44:22;101734.50;;;22.05;63.74
250;BME280;109;19.806;-70.704;2023-02-21T04:47:03;101732.88;;;21.99;63.87
250;BME280;109;19.806;-70.704;2023-02-21T04:49:29;101739.78;;;22.08;63.85
250;BME280;109;19.806;-70.704;2023-02-21T04:52:09;101733.34;;;22.15;63.88
250;BME280;109;19.806;-70.704;2023-02-21T04:54:35;101731.47;;;22.18;63.30
250;BME280;109;19.806;-70.704;2023-02-21T04:57:15;101728.88;;;22.15;63.12
250;BME280;109;19.806;-70.704;2023-02-21T04:59:41;101727.25;;;22.11;63.05
250;BME280;109;19.806;-70.704;2023-02-21T05:02:23;101733.38;;;22.13;63.11
250;BME280;109;19.806;-70.704;2023-02-21T05:04:49;101737.75;;;22.16;63.43
250;BME280;109;19.806;-70.704;2023-02-21T05:07:29;101731.59;;;22.14;63.16
250;BME280;109;19.806;-70.704;2023-02-21T05:09:55;101743.13;;;22.14;63.06
250;BME280;109;19.806;-70.704;2023-02-21T05:12:37;101738.72;;;22.13;62.99
250;BME280;109;19.806;-70.704;2023-02-21T05:15:13;101736.03;;;22.13;62.45
250;BME280;109;19.806;-70.704;2023-02-21T05:17:53;101732.63;;;22.10;62.52
250;BME280;109;19.806;-70.704;2023-02-21T05:20:20;101730.72;;;22.13;62.51
250;BME280;109;19.806;-70.704;2023-02-21T05:23:00;101727.94;;;22.18;62.60
250;BME280;109;19.806;-70.704;2023-02-21T05:25:26;101726.97;;;22.20;62.18
250;BME280;109;19.806;-70.704;2023-02-21T05:28:06;101725.38;;;22.13;62.20
250;BME280;109;19.806;-70.704;2023-02-21T05:30:45;101720.97;;;22.12;62.54
250;BME280;109;19.806;-70.704;2023-02-21T05:33:12;101717.31;;;22.16;62.45
250;BME280;109;19.806;-70.704;2023-02-21T05:35:59;101721.72;;;22.17;62.28
250;BME280;109;19.806;-70.704;2023-02-21T05:38:58;101712.94;;;22.14;61.92
250;BME280;109;19.806;-70.704;2023-02-21T05:41:37;101706.63;;;22.16;62.12
250;BME280;109;19.806;-70.704;2023-02-21T05:44:04;101700.38;;;22.17;61.66
250;BME280;109;19.806;-70.704;2023-02-21T05:46:44;101703.09;;;22.16;61.76
250;BME280;109;19.806;-70.704;2023-02-21T05:49:11;101703.09;;;22.16;61.83
250;BME280;109;19.806;-70.704;2023-02-21T05:51:51;101702.09;;;22.20;61.94
250;BME280;109;19.806;-70.704;2023-02-21T05:54:19;101696.69;;;22.23;61.85
250;BME280;109;19.806;-70.704;2023-02-21T05:57:00;101689.44;;;22.26;61.83
250;BME280;109;19.806;-70.704;2023-02-21T05:59:26;101681.59;;;22.22;61.99
250;BME280;109;19.806;-70.704;2023-02-21T06:02:07;101682.34;;;22.27;62.10
250;BME280;109;19.806;-70.704;2023-02-21T06:04:33;101675.25;;;22.26;61.70
250;BME280;109;19.806;-70.704;2023-02-21T06:07:14;101680.63;;;22.24;61.60
250;BME280;109;19.806;-70.704;2023-02-21T06:09:40;101682.44;;;22.24;62.14
250;BME280;109;19.806;-70.704;2023-02-21T06:12:20;101685.00;;;22.27;62.21
250;BME280;109;19.806;-70.704;2023-02-21T06:14:54;101678.78;;;22.26;61.65
250;BME280;109;19.806;-70.704;2023-02-21T06:17:36;101687.84;;;22.21;61.51
250;BME280;109;19.806;-70.704;2023-02-21T06:20:03;101679.19;;;22.13;61.78
250;BME280;109;19.806;-70.704;2023-02-21T06:22:45;101666.72;;;22.13;61.83
250;BME280;109;19.806;-70.704;2023-02-21T06:25:13;101661.22;;;22.19;62.04
250;BME280;109;19.806;-70.704;2023-02-21T06:27:53;101664.78;;;22.20;62.01
250;BME280;109;19.806;-70.704;2023-02-21T06:30:20;101668.41;;;22.17;61.75
250;BME280;109;19.806;-70.704;2023-02-21T06:33:00;101665.59;;;22.22;61.96
250;BME280;109;19.806;-70.704;2023-02-21T06:35:46;101655.03;;;22.19;61.93
250;BME280;109;19.806;-70.704;2023-02-21T06:38:26;101659.59;;;22.14;61.54
250;BME280;109;19.806;-70.704;2023-02-21T06:41:07;101653.44;;;22.12;61.86
250;BME280;109;19.806;-70.704;2023-02-21T06:43:34;101650.72;;;22.13;61.81
250;BME280;109;19.806;-70.704;2023-02-21T06:46:20;101638.25;;;22.14;62.14
250;BME280;109;19.806;-70.704;2023-02-21T06:48:53;101626.88;;;22.09;61.78
250;BME280;109;19.806;-70.704;2023-02-21T06:51:37;101633.06;;;22.11;61.93
250;BME280;109;19.806;-70.704;2023-02-21T06:54:12;101629.41;;;22.13;61.81
250;BME280;109;19.806;-70.704;2023-02-21T06:56:53;101622.38;;;22.11;62.15
250;BME280;109;19.806;-70.704;2023-02-21T06:59:19;101623.25;;;22.11;62.40
250;BME280;109;19.806;-70.704;2023-02-21T07:01:59;101621.56;;;22.09;62.21
250;BME280;109;19.806;-70.704;2023-02-21T07:04:25;101619.91;;;22.03;62.45
250;BME280;109;19.806;-70.704;2023-02-21T07:07:05;101622.91;;;21.92;62.95
250;BME280;109;19.806;-70.704;2023-02-21T07:09:38;101628.25;;;21.91;62.76
250;BME280;109;19.806;-70.704;2023-02-21T07:12:19;101618.72;;;21.84;62.70
250;BME280;109;19.806;-70.704;2023-02-21T07:14:45;101621.31;;;21.85;62.71
250;BME280;109;19.806;-70.704;2023-02-21T07:17:25;101621.22;;;21.88;62.83
250;BME280;109;19.806;-70.704;2023-02-21T07:19:51;101622.06;;;21.90;62.78
250;BME280;109;19.806;-70.704;2023-02-21T07:22:31;101622.97;;;21.89;63.06
250;BME280;109;19.806;-70.704;2023-02-21T07:24:57;101625.72;;;21.86;63.05
250;BME280;109;19.806;-70.704;2023-02-21T07:27:38;101627.56;;;21.84;63.21
250;BME280;109;19.806;-70.704;2023-02-21T07:30:04;101634.88;;;21.75;63.24
250;BME280;109;19.806;-70.704;2023-02-21T07:32:44;101631.34;;;21.74;63.08
250;BME280;109;19.806;-70.704;2023-02-21T07:35:11;101636.69;;;21.74;63.20
250;BME280;109;19.806;-70.704;2023-02-21T07:37:57;101626.84;;;21.78;63.09
250;BME280;109;19.806;-70.704;2023-02-21T07:40:36;101625.97;;;21.77;62.86
250;BME280;109;19.806;-70.704;2023-02-21T07:43:03;101621.53;;;21.78;62.82
250;BME280;109;19.806;-70.704;2023-02-21T07:45:44;101617.13;;;21.75;63.35
250;BME280;109;19.806;-70.704;2023-02-21T07:48:11;101611.81;;;21.74;63.43
250;BME280;109;19.806;-70.704;2023-02-21T07:50:51;101614.59;;;21.71;62.99
250;BME280;109;19.806;-70.704;2023-02-21T07:53:17;101613.63;;;21.73;63.47
250;BME280;109;19.806;-70.704;2023-02-21T07:55:57;101617.16;;;21.74;63.71
250;BME280;109;19.806;-70.704;2023-02-21T07:58:23;101611.91;;;21.72;63.84
250;BME280;109;19.806;-70.704;2023-02-21T08:01:11;101612.81;;;21.71;63.95
250;BME280;109;19.806;-70.704;2023-02-21T08:03:44;101614.44;;;21.75;63.86
250;BME280;109;19.806;-70.704;2023-02-21T08:06:25;101612.84;;;21.70;64.02
250;BME280;109;19.806;-70.704;2023-02-21T08:08:51;101603.91;;;21.72;63.96
250;BME280;109;19.806;-70.704;2023-02-21T08:11:31;101612.75;;;21.73;63.55
250;BME280;109;19.806;-70.704;2023-02-21T08:13:59;101614.56;;;21.72;63.80
250;BME280;109;19.806;-70.704;2023-02-21T08:16:40;101605.78;;;21.69;64.25
250;BME280;109;19.806;-70.704;2023-02-21T08:19:06;101611.13;;;21.67;64.06
250;BME280;109;19.806;-70.704;2023-02-21T08:21:49;101609.47;;;21.63;64.00
250;BME280;109;19.806;-70.704;2023-02-21T08:24:22;101610.59;;;21.54;64.59
250;BME280;109;19.806;-70.704;2023-02-21T08:27:03;101597.59;;;21.42;64.11
250;BME280;109;19.806;-70.704;2023-02-21T08:29:29;101606.69;;;21.34;64.26
250;BME280;109;19.806;-70.704;2023-02-21T08:32:12;101603.41;;;21.24;64.81
250;BME280;109;19.806;-70.704;2023-02-21T08:34:38;101601.59;;;21.24;64.86
250;BME280;109;19.806;-70.704;2023-02-21T08:37:24;101600.63;;;21.29;65.08
250;BME280;109;19.806;-70.704;2023-02-21T08:40:05;101606.81;;;21.29;64.52
250;BME280;109;19.806;-70.704;2023-02-21T08:42:50;101603.34;;;21.26;65.20
250;BME280;109;19.806;-70.704;2023-02-21T08:45:25;101601.56;;;21.26;64.77
250;BME280;109;19.806;-70.704;2023-02-21T08:48:05;101600.81;;;21.21;65.02
250;BME280;109;19.806;-70.704;2023-02-21T08:50:45;101602.69;;;21.17;64.68
250;BME280;109;19.806;-70.704;2023-02-21T08:53:13;101603.66;;;21.13;64.74
250;BME280;109;19.806;-70.704;2023-02-21T08:55:59;101602.78;;;21.13;64.77
250;BME280;109;19.806;-70.704;2023-02-21T08:58:33;101596.56;;;21.14;64.85
250;BME280;109;19.806;-70.704;2023-02-21T09:01:13;101601.88;;;21.14;64.90
250;BME280;109;19.806;-70.704;2023-02-21T09:03:40;101601.84;;;21.15;64.94
250;BME280;109;19.806;-70.704;2023-02-21T09:06:21;101599.19;;;21.15;65.04
250;BME280;109;19.806;-70.704;2023-02-21T09:08:47;101597.19;;;21.23;65.11
250;BME280;109;19.806;-70.704;2023-02-21T09:11:27;101606.06;;;21.24;64.80
250;BME280;109;19.806;-70.704;2023-02-21T09:13:53;101606.97;;;21.23;65.05
250;BME280;109;19.806;-70.704;2023-02-21T09:16:37;101615.84;;;21.23;64.67
250;BME280;109;19.806;-70.704;2023-02-21T09:19:04;101613.97;;;21.27;64.36
250;BME280;109;19.806;-70.704;2023-02-21T09:21:46;101627.25;;;21.29;64.78
250;BME280;109;19.806;-70.704;2023-02-21T09:24:13;101624.66;;;21.26;64.40
250;BME280;109;19.806;-70.704;2023-02-21T09:26:58;101618.28;;;21.33;64.12
250;BME280;109;19.806;-70.704;2023-02-21T09:29:25;101627.25;;;21.29;63.45
250;BME280;109;19.806;-70.704;2023-02-21T09:32:06;101626.44;;;21.25;63.65
250;BME280;109;19.806;-70.704;2023-02-21T09:34:32;101626.38;;;21.28;63.72
250;BME280;109;19.806;-70.704;2023-02-21T09:37:19;101636.28;;;21.21;64.03
250;BME280;109;19.806;-70.704;2023-02-21T09:39:59;101626.66;;;21.17;64.07
250;BME280;109;19.806;-70.704;2023-02-21T09:42:40;101635.66;;;21.10;63.97
250;BME280;109;19.806;-70.704;2023-02-21T09:45:16;101621.59;;;21.05;64.05
250;BME280;109;19.806;-70.704;2023-02-21T09:47:58;101631.41;;;21.03;64.03
250;BME280;109;19.806;-70.704;2023-02-21T09:50:39;101624.56;;;20.93;64.17
250;BME280;109;19.806;-70.704;2023-02-21T09:53:34;101623.75;;;20.89;64.16
250;BME280;109;19.806;-70.704;2023-02-21T09:56:43;101630.06;;;20.84;64.75
250;BME280;109;19.806;-70.704;2023-02-21T09:59:17;101627.53;;;20.79;64.66
250;BME280;109;19.806;-70.704;2023-02-21T10:07:57;101635.69;;;20.72;64.72
250;BME280;109;19.806;-70.704;2023-02-21T10:10:55;101629.56;;;20.68;64.99
250;BME280;109;19.806;-70.704;2023-02-21T10:16:50;101635.69;;;20.72;65.00
250;BME280;109;19.806;-70.704;2023-02-21T10:19:32;101644.72;;;20.65;64.81
250;BME280;109;19.806;-70.704;2023-02-21T10:22:22;101633.06;;;20.70;64.75
250;BME280;109;19.806;-70.704;2023-02-21T10:24:57;101643.72;;;20.69;64.99
250;BME280;109;19.806;-70.704;2023-02-21T10:34:08;101649.00;;;20.70;64.58
250;BME280;109;19.806;-70.704;2023-02-21T10:36:57;101643.56;;;20.76;64.93
250;BME280;109;19.806;-70.704;2023-02-21T10:39:32;101644.50;;;20.74;64.77
250;BME280;109;19.806;-70.704;2023-02-21T10:42:33;101640.94;;;20.75;64.42
250;BME280;109;19.806;-70.704;2023-02-21T10:45:10;101644.41;;;20.78;64.20
250;BME280;109;19.806;-70.704;2023-02-21T10:48:06;101646.91;;;20.84;64.42
250;BME280;109;19.806;-70.704;2023-02-21T10:53:44;101652.25;;;20.84;64.24
250;BME280;109;19.806;-70.704;2023-02-21T10:58:54;101663.66;;;20.89;64.04
250;BME280;109;19.806;-70.704;2023-02-21T11:01:29;101669.69;;;20.96;63.60
250;BME280;109;19.806;-70.704;2023-02-21T11:04:00;101675.75;;;21.04;63.31
250;BME280;109;19.806;-70.704;2023-02-21T11:08:54;101679.28;;;21.05;62.69
250;BME280;109;19.806;-70.704;2023-02-21T11:11:40;101679.13;;;21.11;62.95
250;BME280;109;19.806;-70.704;2023-02-21T11:14:20;101683.34;;;21.21;62.37
250;BME280;109;19.806;-70.704;2023-02-21T11:17:19;101688.72;;;21.19;62.16
250;BME280;109;19.806;-70.704;2023-02-21T11:19:54;101688.53;;;21.27;62.20
250;BME280;109;19.806;-70.704;2023-02-21T11:22:36;101692.09;;;21.26;62.48
250;BME280;109;19.806;-70.704;2023-02-21T11:27:37;101700.13;;;21.24;61.85
250;BME280;109;19.806;-70.704;2023-02-21T11:30:18;101703.53;;;21.31;61.82
250;BME280;109;19.806;-70.704;2023-02-21T11:32:56;101706.16;;;21.33;61.64
250;BME280;109;19.806;-70.704;2023-02-21T11:35:34;101713.97;;;21.39;61.66
250;BME280;109;19.806;-70.704;2023-02-21T11:38:06;101714.63;;;21.48;61.79
250;BME280;109;19.806;-70.704;2023-02-21T11:40:48;101713.53;;;21.57;61.76
250;BME280;109;19.806;-70.704;2023-02-21T11:43:23;101728.66;;;21.56;61.07
250;BME280;109;19.806;-70.704;2023-02-21T11:51:30;101734.50;;;21.71;61.02
250;BME280;109;19.806;-70.704;2023-02-21T11:53:58;101735.97;;;21.84;60.67
250;BME280;109;19.806;-70.704;2023-02-21T12:04:54;101746.56;;;22.19;60.35
250;BME280;109;19.806;-70.704;2023-02-21T12:10:41;101740.13;;;22.26;59.83
250;BME280;109;19.806;-70.704;2023-02-21T12:20:22;101748.19;;;22.57;59.35
250;BME280;109;19.806;-70.704;2023-02-21T12:33:22;101750.53;;;22.99;58.44
250;BME280;109;19.806;-70.704;2023-02-21T12:53:12;101777.63;;;23.70;57.39
250;BME280;109;19.806;-70.704;2023-02-21T12:55:20;101781.53;;;23.60;57.00
250;BME280;109;19.806;-70.704;2023-02-21T12:58:02;101797.91;;;23.78;56.76
250;BME280;109;19.806;-70.704;2023-02-21T13:00:40;101789.84;;;23.79;56.70
250;BME280;109;19.806;-70.704;2023-02-21T13:06:56;101790.50;;;24.11;56.67
250;BME280;109;19.806;-70.704;2023-02-21T13:09:06;101799.13;;;24.20;56.31
250;BME280;109;19.806;-70.704;2023-02-21T13:12:02;101802.84;;;24.41;56.23
250;BME280;109;19.806;-70.704;2023-02-21T13:14:51;101810.38;;;24.55;55.98
250;BME280;109;19.806;-70.704;2023-02-21T13:17:21;101806.63;;;24.59;55.71
250;BME280;109;19.806;-70.704;2023-02-21T13:22:23;101810.91;;;24.64;55.29
250;BME280;109;19.806;-70.704;2023-02-21T13:28:06;101827.69;;;24.94;55.50
250;BME280;109;19.806;-70.704;2023-02-21T13:30:44;101824.53;;;25.06;55.43
250;BME280;109;19.806;-70.704;2023-02-21T13:35:56;101830.09;;;24.77;55.89
250;BME280;109;19.806;-70.704;2023-02-21T13:38:28;101828.88;;;24.86;56.42
250;BME280;109;19.806;-70.704;2023-02-21T13:41:06;101837.94;;;24.83;57.27
250;BME280;109;19.806;-70.704;2023-02-21T13:43:36;101833.19;;;24.90;57.15
250;BME280;109;19.806;-70.704;2023-02-21T13:57:51;101837.88;;;25.08;56.40
250;BME280;109;19.806;-70.704;2023-02-21T14:13:33;101836.41;;;25.90;54.09
250;BME280;109;19.806;-70.704;2023-02-21T14:29:13;101836.84;;;26.01;53.00
250;BME280;109;19.806;-70.704;2023-02-21T14:35:13;101849.56;;;25.74;53.86
250;BME280;109;19.806;-70.704;2023-02-21T14:40:20;101848.16;;;25.64;55.07
250;BME280;109;19.806;-70.704;2023-02-21T14:51:31;101846.44;;;25.63;53.56
250;BME280;109;19.806;-70.704;2023-02-21T14:57:11;101855.19;;;25.90;53.74
250;BME280;109;19.806;-70.704;2023-02-21T15:00:03;101856.28;;;26.06;54.10
250;BME280;109;19.806;-70.704;2023-02-21T15:03:20;101860.13;;;26.21;54.07
250;BME280;109;19.806;-70.704;2023-02-21T15:06:06;101855.31;;;26.29;53.26
250;BME280;109;19.806;-70.704;2023-02-21T15:08:44;101858.91;;;25.64;54.73
250;BME280;109;19.806;-70.704;2023-02-21T15:11:32;101855.34;;;25.87;54.70
250;BME280;109;19.806;-70.704;2023-02-21T15:14:27;101856.22;;;25.87;54.75
250;BME280;109;19.806;-70.704;2023-02-21T15:16:57;101865.00;;;25.45;55.50
250;BME280;109;19.806;-70.704;2023-02-21T15:24:33;101855.53;;;25.12;57.71
250;BME280;109;19.806;-70.704;2023-02-21T15:27:12;101846.53;;;24.66;58.26
250;BME280;109;19.806;-70.704;2023-02-21T15:29:39;101842.31;;;24.59;59.41
250;BME280;109;19.806;-70.704;2023-02-21T15:32:08;101835.03;;;25.11;59.26
250;BME280;109;19.806;-70.704;2023-02-21T15:34:41;101829.63;;;25.13;58.85
250;BME280;109;19.806;-70.704;2023-02-21T15:39:55;101822.00;;;25.70;58.83
250;BME280;109;19.806;-70.704;2023-02-21T15:42:23;101824.31;;;25.58;58.08
250;BME280;109;19.806;-70.704;2023-02-21T15:44:58;101820.44;;;25.65;57.64
250;BME280;109;19.806;-70.704;2023-02-21T15:47:26;101810.41;;;25.70;57.85
250;BME280;109;19.806;-70.704;2023-02-21T15:50:12;101810.69;;;25.86;57.90
250;BME280;109;19.806;-70.704;2023-02-21T15:52:46;101810.13;;;25.76;56.89
250;BME280;109;19.806;-70.704;2023-02-21T15:57:46;101800.00;;;26.04;57.54
250;BME280;109;19.806;-70.704;2023-02-21T16:00:27;101792.56;;;25.91;56.98
250;BME280;109;19.806;-70.704;2023-02-21T16:06:23;101796.25;;;25.44;57.81
250;BME280;109;19.806;-70.704;2023-02-21T16:09:19;101792.03;;;25.61;56.35
250;BME280;109;19.806;-70.704;2023-02-21T16:12:04;101787.25;;;25.89;57.41
250;BME280;109;19.806;-70.704;2023-02-21T16:17:16;101794.31;;;25.92;57.11
250;BME280;109;19.806;-70.704;2023-02-21T16:19:48;101789.22;;;26.06;56.70
250;BME280;109;19.806;-70.704;2023-02-21T16:24:43;101778.19;;;26.13;56.71
250;BME280;109;19.806;-70.704;2023-02-21T16:27:14;101780.84;;;26.13;55.57
250;BME280;109;19.806;-70.704;2023-02-21T16:29:41;101771.44;;;26.03;56.48
250;BME280;109;19.806;-70.704;2023-02-21T16:32:19;101771.19;;;26.09;56.83
250;BME280;109;19.806;-70.704;2023-02-21T16:34:46;101772.47;;;26.01;56.21
250;BME280;109;19.806;-70.704;2023-02-21T16:37:15;101761.47;;;25.87;55.69
250;BME280;109;19.806;-70.704;2023-02-21T16:39:42;101764.75;;;25.93;55.96
250;BME280;109;19.806;-70.704;2023-02-21T16:42:08;101749.38;;;25.97;57.31
250;BME280;109;19.806;-70.704;2023-02-21T16:44:35;101753.34;;;26.08;57.69
250;BME280;109;19.806;-70.704;2023-02-21T16:47:01;101747.22;;;26.05;56.20
250;BME280;109;19.806;-70.704;2023-02-21T16:49:28;101747.84;;;26.11;57.00
250;BME280;109;19.806;-70.704;2023-02-21T16:51:54;101746.31;;;26.06;56.46
250;BME280;109;19.806;-70.704;2023-02-21T16:54:21;101741.13;;;26.01;56.78
250;BME280;109;19.806;-70.704;2023-02-21T16:56:51;101740.88;;;26.07;57.38
250;BME280;109;19.806;-70.704;2023-02-21T16:59:19;101742.16;;;25.99;57.14
250;BME280;109;19.806;-70.704;2023-02-21T17:01:46;101732.06;;;26.04;57.26
250;BME280;109;19.806;-70.704;2023-02-21T17:04:21;101731.06;;;26.06;57.38
250;BME280;109;19.806;-70.704;2023-02-21T17:07:15;101731.75;;;25.91;57.58
250;BME280;109;19.806;-70.704;2023-02-21T17:09:42;101729.63;;;25.99;56.64
250;BME280;109;19.806;-70.704;2023-02-21T17:12:11;101719.94;;;26.15;56.91
250;BME280;109;19.806;-70.704;2023-02-21T17:14:38;101721.34;;;26.04;56.96
250;BME280;109;19.806;-70.704;2023-02-21T17:17:04;101720.97;;;26.32;57.66
250;BME280;109;19.806;-70.704;2023-02-21T17:19:31;101715.03;;;26.25;57.05